Main page
METAR-TAF:

METAR-TAF

Airports :

Ermelo, South Africa

latitude: 26-29-44S, longitude: 29-58-47E, elevation: 1737 m

Current weather observation

The report was made 16 hours and 22 minutes ago, at 08:51 UTC
Wind 4 kt from the East
Temperature 14°C
Humidity 55%
Pressure 1035 hPa
Visibility 10 km or more
no clouds below 1500 m and no cumulonimbus

METAR: FAEO 230851Z 09004KT CAVOK 14/05 Q1035

Time: 03:13 (01:13 UTC)


TAF: missing

Weather observations and forecasts of more than 4000 airports (METAR and TAF reports).

The available stations are represented by yellow and red dots on the map.

Hover mouse over dot to see the name of the station.

Then click to see weather observations and forecasts.

To change the map : click on the green buttons with a black cross to zoom in, on the green button with a dash to zoom out, or on the green arrows for adjacent maps.


METAR-TAF: